Utopia, New York
Current Conditions -  °F | °C
As of 7:21 AM on Monday 24 Nov 2014 (Local Time) from KLGA Reporting Station
Overcast Overcast  
Wind Chill: 61°   Ceiling: 800
Heat Index: 61°   Visibility: 7mi
Dew Point: 57°   Wind: 23mph
Humidity: 88%   Direction: 180°S
Pressure: 29.69"   Gusts: 33mph
Location:  40.7279°N, 73.7922°W
Report Text: KLGA 241221Z 18020G29KT 7SM FEW006 OVC008 16/14 A2969 RMK AO2 PK WND 17033/1209 RAE08 P0000
Loading
Personal Weather Stations






























Interactive Weather Map New forecast layout! Learn more

10-Day Weather Forecast

Advertisements
Track Severe Weather on mobile